createdAt,value
2022-10-03T00:00:20.393Z,2.10
2022-10-03T00:02:00.528Z,2.10
2022-10-03T00:03:33.844Z,2.33
2022-10-03T00:05:26.739Z,2.30
2022-10-03T00:07:05.967Z,1.60
2022-10-03T00:08:46.029Z,1.80
2022-10-03T00:10:28.964Z,2.07
2022-10-03T00:12:11.034Z,2.20
2022-10-03T00:13:41.724Z,1.93
2022-10-03T00:15:16.905Z,2.13
2022-10-03T00:16:59.547Z,2.53
2022-10-03T00:18:36.846Z,2.40
2022-10-03T00:20:28.151Z,1.60
2022-10-03T00:22:18.516Z,2.60
2022-10-03T00:23:52.273Z,1.90
2022-10-03T00:25:14.368Z,1.90
2022-10-03T00:26:55.254Z,2.40
2022-10-03T00:28:46.509Z,1.97
2022-10-03T00:30:23.124Z,2.00
2022-10-03T00:31:59.240Z,2.20
2022-10-03T00:33:33.099Z,1.53
2022-10-03T00:35:13.792Z,2.00
2022-10-03T00:37:00.661Z,2.30
2022-10-03T00:38:55.803Z,1.80
2022-10-03T00:40:35.945Z,1.77
2022-10-03T00:42:07.226Z,2.77
2022-10-03T00:43:56.207Z,2.33
2022-10-03T00:45:49.798Z,2.13
2022-10-03T00:47:48.395Z,3.43
2022-10-03T00:49:29.419Z,1.90
2022-10-03T00:51:05.554Z,3.00
2022-10-03T00:52:53.263Z,2.23
2022-10-03T00:54:40.897Z,2.43
2022-10-03T00:56:35.408Z,1.97
2022-10-03T00:58:06.419Z,2.30
2022-10-03T00:59:48.184Z,1.93
2022-10-03T01:01:28.814Z,1.80
2022-10-03T01:03:09.700Z,1.90
2022-10-03T01:05:03.317Z,1.83
2022-10-03T01:06:42.260Z,2.80
2022-10-03T01:08:33.518Z,1.73
2022-10-03T01:10:09.591Z,2.00
2022-10-03T01:11:46.682Z,2.10
2022-10-03T01:13:39.225Z,1.83
2022-10-03T01:15:15.730Z,1.60
2022-10-03T01:16:42.752Z,2.40
2022-10-03T01:18:19.224Z,2.00
2022-10-03T01:20:25.008Z,2.37
2022-10-03T01:22:07.981Z,1.80
2022-10-03T01:23:39.182Z,1.97
2022-10-03T01:25:29.936Z,2.30
2022-10-03T01:26:56.911Z,2.60
2022-10-03T01:28:37.450Z,2.40
2022-10-03T01:30:23.533Z,2.27
2022-10-03T01:32:03.163Z,2.97
2022-10-03T01:33:37.564Z,2.70
2022-10-03T01:35:17.890Z,3.73
2022-10-03T01:36:52.516Z,3.30
2022-10-03T01:38:25.203Z,2.43
2022-10-03T01:40:13.587Z,2.40
2022-10-03T01:41:42.032Z,2.10
2022-10-03T01:43:07.325Z,2.80
2022-10-03T01:44:58.475Z,2.57
2022-10-03T01:46:34.264Z,2.37
2022-10-03T01:48:21.089Z,2.57
2022-10-03T01:50:17.248Z,2.20
2022-10-03T01:52:24.561Z,2.40
2022-10-03T01:54:20.364Z,2.60
2022-10-03T01:56:25.981Z,2.50
2022-10-03T01:58:05.808Z,2.50
2022-10-03T01:59:34.904Z,3.10
2022-10-03T02:01:01.912Z,3.10
2022-10-03T02:03:06.238Z,3.63
2022-10-03T02:04:34.190Z,3.00
2022-10-03T02:06:17.449Z,3.40
2022-10-03T02:08:07.914Z,2.33
2022-10-03T02:09:36.465Z,2.80
2022-10-03T02:11:07.494Z,3.47
2022-10-03T02:12:39.494Z,2.50
2022-10-03T02:14:21.830Z,2.90
2022-10-03T02:16:18.179Z,3.10
2022-10-03T02:17:42.875Z,2.87
2022-10-03T02:19:20.339Z,2.97
2022-10-03T02:20:54.136Z,2.30
2022-10-03T02:22:42.664Z,2.60
2022-10-03T02:24:16.655Z,4.50
2022-10-03T02:26:04.228Z,3.60
2022-10-03T02:27:28.760Z,2.70
2022-10-03T02:29:38.465Z,2.00
2022-10-03T02:31:33.439Z,2.93
2022-10-03T02:33:12.050Z,2.47
2022-10-03T02:34:40.628Z,2.80
2022-10-03T02:36:26.342Z,3.00
2022-10-03T02:38:17.939Z,2.67
2022-10-03T02:40:04.958Z,2.37
2022-10-03T02:41:46.858Z,2.63
2022-10-03T02:43:31.872Z,3.27
2022-10-03T02:45:20.873Z,2.50
2022-10-03T02:47:21.451Z,2.27
2022-10-03T02:49:01.096Z,2.60
2022-10-03T02:50:42.310Z,2.90
2022-10-03T02:52:28.976Z,3.10
2022-10-03T02:54:12.192Z,2.07
2022-10-03T02:55:58.679Z,2.57
2022-10-03T02:57:42.567Z,3.03
2022-10-03T02:59:28.729Z,3.33
2022-10-03T03:01:12.845Z,2.97
2022-10-03T03:03:13.089Z,2.40
2022-10-03T03:05:01.621Z,2.10
2022-10-03T03:06:37.176Z,2.67
2022-10-03T03:08:58.135Z,2.30
2022-10-03T03:10:31.647Z,3.20
2022-10-03T03:12:29.113Z,2.60
2022-10-03T03:14:07.130Z,3.37
2022-10-03T03:15:44.781Z,2.90
2022-10-03T03:17:26.414Z,2.20
2022-10-03T03:19:13.592Z,2.70
2022-10-03T03:21:08.339Z,2.33
2022-10-03T03:22:54.454Z,2.67
2022-10-03T03:24:19.464Z,2.80
2022-10-03T03:26:03.703Z,3.17
2022-10-03T03:27:50.328Z,3.53
2022-10-03T03:29:31.380Z,2.17
2022-10-03T03:31:25.214Z,2.83
2022-10-03T03:33:02.907Z,3.40
2022-10-03T03:34:59.455Z,2.30
2022-10-03T03:36:21.525Z,3.30
2022-10-03T03:37:49.827Z,2.90
2022-10-03T03:39:24.110Z,2.80
2022-10-03T03:41:20.365Z,2.27
2022-10-03T03:43:29.385Z,2.83
2022-10-03T03:45:19.328Z,3.43
2022-10-03T03:47:28.359Z,2.60
2022-10-03T03:49:29.502Z,2.90
2022-10-03T03:51:06.803Z,3.50
2022-10-03T03:53:07.917Z,3.43
2022-10-03T03:54:48.228Z,3.03
2022-10-03T03:56:17.395Z,2.80
2022-10-03T03:58:01.943Z,2.63
2022-10-03T03:59:50.249Z,3.10
2022-10-03T04:01:46.013Z,2.50
2022-10-03T04:03:29.555Z,3.10
2022-10-03T04:05:09.499Z,2.80
2022-10-03T04:06:42.185Z,3.23
2022-10-03T04:08:18.735Z,2.40
2022-10-03T04:10:07.325Z,1.97
2022-10-03T04:11:51.645Z,2.90
2022-10-03T04:13:39.131Z,2.73
2022-10-03T04:15:13.266Z,3.53
2022-10-03T04:17:24.825Z,2.50
2022-10-03T04:19:14.444Z,3.43
2022-10-03T04:20:49.211Z,2.70
2022-10-03T04:22:36.441Z,4.17
2022-10-03T04:24:29.421Z,2.20
2022-10-03T04:26:05.083Z,2.07
2022-10-03T04:27:50.078Z,3.00
2022-10-03T04:29:40.479Z,3.10
2022-10-03T04:31:25.671Z,2.30
2022-10-03T04:32:57.277Z,2.50
2022-10-03T04:34:46.579Z,2.43
2022-10-03T04:36:39.156Z,2.60
2022-10-03T04:38:25.019Z,2.77
2022-10-03T04:40:25.905Z,2.27
2022-10-03T04:42:27.049Z,3.50
2022-10-03T04:44:19.785Z,3.07
2022-10-03T04:46:01.041Z,2.03
2022-10-03T04:47:34.603Z,2.93
2022-10-03T04:49:32.424Z,3.40
2022-10-03T04:51:02.255Z,3.30
2022-10-03T04:52:47.525Z,3.50
2022-10-03T04:54:38.777Z,2.10
2022-10-03T04:56:35.159Z,2.87
2022-10-03T04:58:07.720Z,3.27
2022-10-03T04:59:47.097Z,2.60
2022-10-03T05:01:41.420Z,3.20
2022-10-03T05:03:16.455Z,2.70
2022-10-03T05:05:09.084Z,2.67
2022-10-03T05:06:51.604Z,3.10
2022-10-03T05:08:32.868Z,2.20
2022-10-03T05:10:06.616Z,3.37
2022-10-03T05:11:34.402Z,2.77
2022-10-03T05:13:16.311Z,2.97
2022-10-03T05:15:18.385Z,2.60
2022-10-03T05:16:55.502Z,2.60
2022-10-03T05:18:39.858Z,2.80
2022-10-03T05:20:24.530Z,5.07
2022-10-03T05:22:03.511Z,2.67
2022-10-03T05:23:42.245Z,2.50
2022-10-03T05:25:25.980Z,4.57
2022-10-03T05:27:16.562Z,3.00
2022-10-03T05:28:54.329Z,2.63
2022-10-03T05:30:35.389Z,3.23
2022-10-03T05:32:33.838Z,2.97
2022-10-03T05:34:09.182Z,3.30
2022-10-03T05:36:00.185Z,2.33
2022-10-03T05:37:43.861Z,3.23
2022-10-03T05:39:23.662Z,2.90
2022-10-03T05:41:07.674Z,2.90
2022-10-03T05:42:52.575Z,3.07
2022-10-03T05:44:19.060Z,3.37
2022-10-03T05:45:46.962Z,3.50
2022-10-03T05:47:31.489Z,2.77
2022-10-03T05:49:32.555Z,3.40
2022-10-03T05:51:19.717Z,3.10
2022-10-03T05:52:53.759Z,3.20
2022-10-03T05:54:21.755Z,3.33
2022-10-03T05:55:53.825Z,3.67
2022-10-03T05:58:00.243Z,2.60
2022-10-03T06:00:00.222Z,2.93
2022-10-03T06:01:27.902Z,2.67
2022-10-03T06:03:14.441Z,3.07
2022-10-03T06:05:13.354Z,3.30
2022-10-03T06:06:56.828Z,2.70
2022-10-03T06:08:24.330Z,3.10
2022-10-03T06:10:05.031Z,2.93
2022-10-03T06:12:04.425Z,3.10
2022-10-03T06:13:32.602Z,2.20
2022-10-03T06:14:54.924Z,2.93
2022-10-03T06:16:25.748Z,2.90
2022-10-03T06:17:55.408Z,3.07
2022-10-03T06:19:35.737Z,3.23
2022-10-03T06:21:18.646Z,2.53
2022-10-03T06:23:00.416Z,2.60
2022-10-03T06:25:00.924Z,2.43
2022-10-03T06:27:09.983Z,2.23
2022-10-03T06:29:01.407Z,2.30
2022-10-03T06:30:43.108Z,2.47
2022-10-03T06:32:43.184Z,2.67
2022-10-03T06:34:41.864Z,2.30
2022-10-03T06:36:34.119Z,1.93
2022-10-03T06:38:23.045Z,1.67
2022-10-03T06:40:10.122Z,2.87
2022-10-03T06:42:08.181Z,1.70
2022-10-03T06:43:47.920Z,3.23
2022-10-03T06:45:41.444Z,2.50
2022-10-03T06:47:41.352Z,2.13
2022-10-03T06:49:24.323Z,2.40
2022-10-03T06:51:07.506Z,2.43
2022-10-03T06:53:07.965Z,2.40
2022-10-03T06:54:38.872Z,2.00
2022-10-03T06:56:12.687Z,2.00
2022-10-03T06:57:55.830Z,2.30
2022-10-03T06:59:39.596Z,3.47
2022-10-03T07:01:23.228Z,2.50
2022-10-03T07:03:20.097Z,1.93
2022-10-03T07:05:14.220Z,2.80
2022-10-03T07:06:48.742Z,2.63
2022-10-03T07:08:34.749Z,2.23
2022-10-03T07:10:22.869Z,3.33
2022-10-03T07:12:17.857Z,2.63
2022-10-03T07:14:00.770Z,2.13
2022-10-03T07:16:08.792Z,2.83
2022-10-03T07:17:57.684Z,3.43
2022-10-03T07:19:43.626Z,2.60
2022-10-03T07:21:53.586Z,4.40
2022-10-03T07:23:53.051Z,2.10
2022-10-03T07:25:46.345Z,2.70
2022-10-03T07:27:32.437Z,2.33
2022-10-03T07:29:09.296Z,2.23
2022-10-03T07:30:51.924Z,3.10
2022-10-03T07:32:26.285Z,2.10
2022-10-03T07:34:12.376Z,2.27
2022-10-03T07:36:33.380Z,2.40
2022-10-03T07:38:58.114Z,2.43
2022-10-03T07:40:58.086Z,2.03
2022-10-03T07:42:42.426Z,3.00
2022-10-03T07:44:33.931Z,2.73
2022-10-03T07:46:14.409Z,3.00
2022-10-03T07:48:02.075Z,3.23
2022-10-03T07:50:01.583Z,4.20
2022-10-03T07:51:29.677Z,3.57
2022-10-03T07:53:20.769Z,2.60
2022-10-03T07:54:55.057Z,3.57
2022-10-03T07:56:38.564Z,3.70
2022-10-03T07:58:37.887Z,3.17
2022-10-03T08:00:06.587Z,3.30
2022-10-03T08:01:31.405Z,3.83
2022-10-03T08:02:59.104Z,3.20
2022-10-03T08:04:42.903Z,3.53
2022-10-03T08:06:43.370Z,2.90
2022-10-03T08:08:28.959Z,3.20
2022-10-03T08:10:02.547Z,3.70
2022-10-03T08:11:43.247Z,3.13
2022-10-03T08:13:09.266Z,3.30
2022-10-03T08:15:05.011Z,3.53
2022-10-03T08:16:42.388Z,2.97
2022-10-03T08:18:23.038Z,2.80
2022-10-03T08:20:13.944Z,2.80
2022-10-03T08:22:04.152Z,3.57
2022-10-03T08:24:04.153Z,2.73
2022-10-03T08:25:28.977Z,2.60
2022-10-03T08:27:22.685Z,2.97
2022-10-03T08:28:58.162Z,2.20
2022-10-03T08:30:27.761Z,2.50
2022-10-03T08:32:08.770Z,2.87
2022-10-03T08:34:04.976Z,2.73
2022-10-03T08:35:47.894Z,3.33
2022-10-03T08:37:34.324Z,3.30
2022-10-03T08:39:14.180Z,2.77
2022-10-03T08:40:57.061Z,2.70
2022-10-03T08:42:19.013Z,2.30
2022-10-03T08:44:02.458Z,3.40
2022-10-03T08:45:30.475Z,3.50
2022-10-03T08:47:13.417Z,2.47
2022-10-03T08:49:00.500Z,5.00
2022-10-03T08:50:31.395Z,3.00
2022-10-03T08:52:00.717Z,2.50
2022-10-03T08:53:47.751Z,2.93
2022-10-03T08:55:42.507Z,2.67
2022-10-03T08:57:08.477Z,2.70
2022-10-03T08:58:42.693Z,2.90
2022-10-03T09:00:15.526Z,3.20
2022-10-03T09:01:44.222Z,3.97
2022-10-03T09:03:42.927Z,2.90
2022-10-03T09:05:08.209Z,3.43
2022-10-03T09:07:18.947Z,2.80
2022-10-03T09:09:19.904Z,2.67
2022-10-03T09:11:13.592Z,3.40
2022-10-03T09:13:06.739Z,2.23
2022-10-03T09:14:35.001Z,2.70
2022-10-03T09:16:26.085Z,2.80
2022-10-03T09:18:24.180Z,2.80
2022-10-03T09:20:08.342Z,2.30
2022-10-03T09:21:48.522Z,2.10
2022-10-03T09:23:29.314Z,2.23
2022-10-03T09:25:21.052Z,2.43
2022-10-03T09:27:22.551Z,2.50
2022-10-03T09:29:09.314Z,2.50
2022-10-03T09:31:13.714Z,3.00
2022-10-03T09:33:03.813Z,2.50
2022-10-03T09:34:34.972Z,2.43
2022-10-03T09:36:15.766Z,2.10
2022-10-03T09:37:43.690Z,2.23
2022-10-03T09:39:27.402Z,2.60
2022-10-03T09:41:10.202Z,2.17
2022-10-03T09:42:55.305Z,3.00
2022-10-03T09:44:36.025Z,2.40
2022-10-03T09:46:06.670Z,2.83
2022-10-03T09:47:43.892Z,2.30
2022-10-03T09:49:13.015Z,3.30
2022-10-03T09:51:29.004Z,3.00
2022-10-03T09:53:30.111Z,2.60
2022-10-03T09:55:21.508Z,2.97
2022-10-03T09:56:55.534Z,3.43
2022-10-03T09:58:52.339Z,2.97
2022-10-03T10:00:34.943Z,2.50
2022-10-03T10:02:33.345Z,2.53
2022-10-03T10:04:22.090Z,3.23
2022-10-03T10:06:24.799Z,2.87
2022-10-03T10:08:09.252Z,2.50
2022-10-03T10:09:56.503Z,2.20
2022-10-03T10:11:18.524Z,2.20
2022-10-03T10:12:52.691Z,1.77
2022-10-03T10:14:17.586Z,2.73
2022-10-03T10:16:21.170Z,2.03
2022-10-03T10:18:04.817Z,1.50
2022-10-03T10:19:45.511Z,2.13
2022-10-03T10:21:41.733Z,2.40
2022-10-03T10:23:28.344Z,1.97
2022-10-03T10:24:59.338Z,2.13
2022-10-03T10:26:42.689Z,1.83
2022-10-03T10:28:18.635Z,2.03
2022-10-03T10:29:55.363Z,2.40
2022-10-03T10:31:53.014Z,2.03
2022-10-03T10:33:42.136Z,2.00
2022-10-03T10:35:37.620Z,1.97
2022-10-03T10:37:27.092Z,2.27
2022-10-03T10:39:00.151Z,1.67
2022-10-03T10:40:47.062Z,1.67
2022-10-03T10:42:46.378Z,2.33
2022-10-03T10:44:36.669Z,1.93
2022-10-03T10:46:17.629Z,1.90
2022-10-03T10:47:54.114Z,2.23
2022-10-03T10:49:47.930Z,2.10
2022-10-03T10:51:31.499Z,1.60
2022-10-03T10:53:18.124Z,2.03
2022-10-03T10:54:43.257Z,2.13
2022-10-03T10:56:27.256Z,1.97
2022-10-03T10:58:15.580Z,2.23
2022-10-03T10:59:56.168Z,1.93
2022-10-03T11:01:45.859Z,2.47
2022-10-03T11:03:47.130Z,1.83
2022-10-03T11:05:46.937Z,1.83
2022-10-03T11:07:17.671Z,2.23
2022-10-03T11:08:45.788Z,2.13
2022-10-03T11:10:19.867Z,2.10
2022-10-03T11:12:17.116Z,2.50
2022-10-03T11:14:16.152Z,1.93
2022-10-03T11:15:48.008Z,2.10
2022-10-03T11:17:24.739Z,1.63
2022-10-03T11:19:25.118Z,2.27
2022-10-03T11:21:21.028Z,2.30
2022-10-03T11:23:20.517Z,1.70
2022-10-03T11:25:00.049Z,2.07
2022-10-03T11:26:36.954Z,2.43
2022-10-03T11:28:11.073Z,2.63
2022-10-03T11:30:14.236Z,2.17
2022-10-03T11:32:14.433Z,2.23
2022-10-03T11:34:12.963Z,2.10
2022-10-03T11:36:07.491Z,2.00
2022-10-03T11:37:52.419Z,2.17
2022-10-03T11:39:42.179Z,2.10
2022-10-03T11:41:13.098Z,2.40
2022-10-03T11:42:50.831Z,1.70
2022-10-03T11:44:24.959Z,2.73
2022-10-03T11:46:20.418Z,1.70
2022-10-03T11:47:55.051Z,1.60
2022-10-03T11:49:30.358Z,2.50
2022-10-03T11:50:59.250Z,2.80
2022-10-03T11:52:27.792Z,2.33
2022-10-03T11:54:29.571Z,2.67
2022-10-03T11:55:51.635Z,2.40
2022-10-03T11:57:30.710Z,2.20
2022-10-03T11:59:29.729Z,1.73
2022-10-03T12:01:20.807Z,2.00
2022-10-03T12:02:59.806Z,2.93
2022-10-03T12:04:59.814Z,2.90
2022-10-03T12:07:03.815Z,1.87
2022-10-03T12:08:49.499Z,2.37
2022-10-03T12:10:38.304Z,1.73
2022-10-03T12:12:19.084Z,2.00
2022-10-03T12:14:05.259Z,2.07
2022-10-03T12:15:50.982Z,1.77
2022-10-03T12:17:36.885Z,2.10
2022-10-03T12:19:06.410Z,2.43
2022-10-03T12:21:03.818Z,1.87
2022-10-03T12:22:50.043Z,3.40
2022-10-03T12:24:23.265Z,2.20
2022-10-03T12:25:47.203Z,1.90
2022-10-03T12:27:19.624Z,2.03
2022-10-03T12:28:46.868Z,2.40
2022-10-03T12:30:16.560Z,2.73
2022-10-03T12:32:09.849Z,2.00
2022-10-03T12:33:53.192Z,2.40
2022-10-03T12:35:24.785Z,2.00
2022-10-03T12:37:03.700Z,2.40
2022-10-03T12:38:33.760Z,1.67
2022-10-03T12:40:10.398Z,2.27
2022-10-03T12:41:41.817Z,2.10
2022-10-03T12:43:04.169Z,2.03
2022-10-03T12:44:34.791Z,2.00
2022-10-03T12:46:28.532Z,2.37
2022-10-03T12:48:24.154Z,2.53
2022-10-03T12:50:12.484Z,2.40
2022-10-03T12:51:55.557Z,2.10
2022-10-03T12:53:17.636Z,2.80
2022-10-03T12:54:58.137Z,2.43
2022-10-03T12:56:32.944Z,1.83
2022-10-03T12:57:57.788Z,1.30
2022-10-03T12:59:25.802Z,1.97
2022-10-03T13:01:07.274Z,2.00
2022-10-03T13:02:49.101Z,2.07
2022-10-03T13:04:26.212Z,2.00
2022-10-03T13:05:55.227Z,2.13
2022-10-03T13:07:19.972Z,2.63
2022-10-03T13:09:06.636Z,2.37
2022-10-03T13:10:47.648Z,2.37
2022-10-03T13:12:36.758Z,2.07
2022-10-03T13:14:29.624Z,1.90
2022-10-03T13:16:19.813Z,2.53
2022-10-03T13:17:52.695Z,2.13
2022-10-03T13:19:27.204Z,2.60
2022-10-03T13:21:40.738Z,2.20
2022-10-03T13:23:11.545Z,1.90
2022-10-03T13:24:38.038Z,2.23
2022-10-03T13:26:18.256Z,1.97
2022-10-03T13:28:15.597Z,2.40
2022-10-03T13:29:45.027Z,2.40
2022-10-03T13:31:23.795Z,2.77
2022-10-03T13:33:22.949Z,1.90
2022-10-03T13:35:35.120Z,2.07
2022-10-03T13:37:12.920Z,1.80
2022-10-03T13:38:47.074Z,2.07
2022-10-03T13:40:15.843Z,2.53
2022-10-03T13:41:43.939Z,2.60
2022-10-03T13:43:13.708Z,1.63
2022-10-03T13:44:38.658Z,2.13
2022-10-03T13:46:02.408Z,1.60
2022-10-03T13:47:30.740Z,1.80
2022-10-03T13:49:36.139Z,2.83
2022-10-03T13:51:05.650Z,1.93
2022-10-03T13:52:39.441Z,2.20
2022-10-03T13:54:21.057Z,2.00
2022-10-03T13:55:43.716Z,1.80
2022-10-03T13:57:24.757Z,2.73
2022-10-03T13:59:08.305Z,2.30
2022-10-03T14:00:51.191Z,1.50
2022-10-03T14:02:29.152Z,2.30
2022-10-03T14:03:59.847Z,2.00
2022-10-03T14:05:51.401Z,3.03
2022-10-03T14:07:28.546Z,2.77
2022-10-03T14:09:40.091Z,2.17
2022-10-03T14:11:36.773Z,2.00
2022-10-03T14:13:57.557Z,1.80
2022-10-03T14:15:45.141Z,1.90
2022-10-03T14:17:45.035Z,3.43
2022-10-03T14:19:17.433Z,1.97
2022-10-03T14:21:01.595Z,1.73
2022-10-03T14:22:39.103Z,2.27
2022-10-03T14:24:22.571Z,1.93
2022-10-03T14:26:05.404Z,2.53
2022-10-03T14:27:44.427Z,2.23
2022-10-03T14:29:34.674Z,2.50
2022-10-03T14:31:14.609Z,2.27
2022-10-03T14:32:48.335Z,2.00
2022-10-03T14:34:19.674Z,2.40
2022-10-03T14:36:11.330Z,1.90
2022-10-03T14:37:54.991Z,3.07
2022-10-03T14:39:23.593Z,2.30
2022-10-03T14:40:49.990Z,2.60
2022-10-03T14:42:28.547Z,2.17
2022-10-03T14:43:57.241Z,2.07
2022-10-03T14:45:26.539Z,2.30
2022-10-03T14:47:03.885Z,2.63
2022-10-03T14:48:38.879Z,3.00
2022-10-03T14:50:01.036Z,2.53
2022-10-03T14:51:47.549Z,2.40
2022-10-03T14:53:20.314Z,2.60
2022-10-03T14:54:43.873Z,1.80
2022-10-03T14:56:11.809Z,2.07
2022-10-03T14:57:59.060Z,2.40
2022-10-03T14:59:34.651Z,2.67
2022-10-03T15:01:16.319Z,2.60
2022-10-03T15:02:45.890Z,1.90
2022-10-03T15:04:41.833Z,2.63
2022-10-03T15:06:20.832Z,2.70
2022-10-03T15:07:46.533Z,2.33
2022-10-03T15:09:40.211Z,2.87
2022-10-03T15:11:04.485Z,2.57
2022-10-03T15:12:31.674Z,3.30
2022-10-03T15:14:04.974Z,4.10
2022-10-03T15:15:31.243Z,2.80
2022-10-03T15:16:58.636Z,3.00
2022-10-03T15:18:24.254Z,3.10
2022-10-03T15:19:54.893Z,2.37
2022-10-03T15:21:18.147Z,2.90
2022-10-03T15:22:46.684Z,1.80
2022-10-03T15:24:14.624Z,3.20
2022-10-03T15:25:41.772Z,2.00
2022-10-03T15:27:20.415Z,2.53
2022-10-03T15:28:46.291Z,2.43
2022-10-03T15:30:17.985Z,3.27
2022-10-03T15:31:44.430Z,2.70
2022-10-03T15:33:20.877Z,2.60
2022-10-03T15:34:48.549Z,2.70
2022-10-03T15:36:16.681Z,2.20
2022-10-03T15:37:47.597Z,2.50
2022-10-03T15:39:26.833Z,2.77
2022-10-03T15:40:52.963Z,2.27
2022-10-03T15:42:18.104Z,2.90
2022-10-03T15:44:04.863Z,2.47
2022-10-03T15:45:29.328Z,2.07
2022-10-03T15:47:01.929Z,1.73
2022-10-03T15:48:28.005Z,2.13
2022-10-03T15:50:08.099Z,2.00
2022-10-03T15:51:32.858Z,1.90
2022-10-03T15:53:18.097Z,2.30
2022-10-03T15:55:06.717Z,2.50
2022-10-03T15:56:39.790Z,2.70
2022-10-03T15:58:18.944Z,2.57
2022-10-03T15:59:45.354Z,1.77
2022-10-03T16:01:19.313Z,2.50
2022-10-03T16:02:52.661Z,2.40
2022-10-03T16:04:25.229Z,2.63
2022-10-03T16:05:53.618Z,3.53
2022-10-03T16:07:18.737Z,2.40
2022-10-03T16:09:04.398Z,2.40
2022-10-03T16:10:31.560Z,3.70
2022-10-03T16:12:19.303Z,3.37
2022-10-03T16:13:45.993Z,3.30
2022-10-03T16:15:15.078Z,3.30
2022-10-03T16:16:47.272Z,3.30
2022-10-03T16:18:30.108Z,1.90
2022-10-03T16:20:00.685Z,2.40
2022-10-03T16:21:53.902Z,1.70
2022-10-03T16:23:26.428Z,2.90
2022-10-03T16:25:06.902Z,2.87
2022-10-03T16:26:41.047Z,2.73
2022-10-03T16:28:07.790Z,2.27
2022-10-03T16:29:34.615Z,2.63
2022-10-03T16:31:21.026Z,2.33
2022-10-03T16:33:04.795Z,2.80
2022-10-03T16:34:30.966Z,2.80
2022-10-03T16:36:00.148Z,3.23
2022-10-03T16:37:26.330Z,2.20
2022-10-03T16:38:57.296Z,3.30
2022-10-03T16:40:22.923Z,3.20
2022-10-03T16:41:47.556Z,4.33
2022-10-03T16:43:17.515Z,2.83
2022-10-03T16:44:52.268Z,3.63
2022-10-03T16:46:21.460Z,2.33
2022-10-03T16:47:46.030Z,2.03
2022-10-03T16:49:55.024Z,2.07
2022-10-03T16:51:23.583Z,3.27
2022-10-03T16:52:50.106Z,3.03
2022-10-03T16:54:14.929Z,2.23
2022-10-03T16:56:00.091Z,2.63
2022-10-03T16:57:31.713Z,2.57
2022-10-03T16:58:55.986Z,2.17
2022-10-03T17:00:24.166Z,2.33
2022-10-03T17:01:58.192Z,2.07
2022-10-03T17:03:24.143Z,2.83
2022-10-03T17:04:54.699Z,3.30
2022-10-03T17:06:32.516Z,2.17
2022-10-03T17:08:23.591Z,2.67
2022-10-03T17:09:45.031Z,2.60
2022-10-03T17:11:08.523Z,3.33
2022-10-03T17:12:42.018Z,2.37
2022-10-03T17:14:08.549Z,1.90
2022-10-03T17:15:38.725Z,2.50
2022-10-03T17:17:06.768Z,2.10
2022-10-03T17:18:37.586Z,2.47
2022-10-03T17:20:01.838Z,2.60
2022-10-03T17:21:28.811Z,2.33
2022-10-03T17:23:01.605Z,2.13
2022-10-03T17:24:44.577Z,3.17
2022-10-03T17:26:26.004Z,2.80
2022-10-03T17:27:50.414Z,2.70
2022-10-03T17:29:20.921Z,3.33
2022-10-03T17:30:49.542Z,2.90
2022-10-03T17:32:20.383Z,2.50
2022-10-03T17:33:48.432Z,2.40
2022-10-03T17:35:36.740Z,2.80
2022-10-03T17:37:20.815Z,3.20
2022-10-03T17:38:57.137Z,2.37
2022-10-03T17:40:40.659Z,2.20
2022-10-03T17:42:23.269Z,2.57
2022-10-03T17:44:01.692Z,3.30
2022-10-03T17:45:42.404Z,4.60
2022-10-03T17:47:33.928Z,7.67
2022-10-03T17:49:26.413Z,7.40
2022-10-03T17:51:02.893Z,7.07
2022-10-03T17:52:25.820Z,9.33
2022-10-03T17:53:57.282Z,11.10
2022-10-03T17:55:41.545Z,5.63
2022-10-03T17:57:20.309Z,7.50
2022-10-03T17:58:49.698Z,5.10
2022-10-03T18:00:22.822Z,6.60
2022-10-03T18:01:51.477Z,4.90
2022-10-03T18:03:22.854Z,3.60
2022-10-03T18:04:50.319Z,3.13
2022-10-03T18:06:38.792Z,5.37
2022-10-03T18:08:25.605Z,2.63
2022-10-03T18:09:50.132Z,2.77
2022-10-03T18:11:23.315Z,3.33
2022-10-03T18:12:48.164Z,2.90
2022-10-03T18:14:40.557Z,2.87
2022-10-03T18:16:25.044Z,3.17
2022-10-03T18:18:19.657Z,2.50
2022-10-03T18:19:47.333Z,2.83
2022-10-03T18:21:27.737Z,3.40
2022-10-03T18:22:59.402Z,2.63
2022-10-03T18:24:40.322Z,2.70
2022-10-03T18:26:26.465Z,2.97
2022-10-03T18:28:04.807Z,2.80
2022-10-03T18:29:50.804Z,5.80
2022-10-03T18:31:18.836Z,5.57
2022-10-03T18:32:45.516Z,6.53
2022-10-03T18:34:13.762Z,6.27
2022-10-03T18:35:37.500Z,9.40
2022-10-03T18:37:24.783Z,5.13
2022-10-03T18:38:48.273Z,4.10
2022-10-03T18:40:42.143Z,4.30
2022-10-03T18:42:09.017Z,3.67
2022-10-03T18:43:45.250Z,2.97
2022-10-03T18:45:17.891Z,3.10
2022-10-03T18:46:42.629Z,3.40
2022-10-03T18:48:12.961Z,3.00
2022-10-03T18:49:39.419Z,2.40
2022-10-03T18:51:32.645Z,2.63
2022-10-03T18:53:01.065Z,3.13
2022-10-03T18:54:41.276Z,2.83
2022-10-03T18:56:17.365Z,3.30
2022-10-03T18:58:05.936Z,2.07
2022-10-03T19:00:02.041Z,2.50
2022-10-03T19:01:35.447Z,2.57
2022-10-03T19:03:19.262Z,2.53
2022-10-03T19:04:51.462Z,1.93
2022-10-03T19:06:23.694Z,2.37
2022-10-03T19:08:07.958Z,3.40
2022-10-03T19:09:41.549Z,3.73
2022-10-03T19:11:26.407Z,3.00
2022-10-03T19:12:59.739Z,2.27
2022-10-03T19:14:49.001Z,2.40
2022-10-03T19:16:20.651Z,2.80
2022-10-03T19:17:50.507Z,2.10
2022-10-03T19:19:49.284Z,2.70
2022-10-03T19:21:18.787Z,2.37
2022-10-03T19:22:44.631Z,2.20
2022-10-03T19:24:46.135Z,2.33
2022-10-03T19:26:12.005Z,2.53
2022-10-03T19:27:49.746Z,3.90
2022-10-03T19:29:26.892Z,3.60
2022-10-03T19:31:29.172Z,4.03
2022-10-03T19:32:51.339Z,5.03
2022-10-03T19:34:33.307Z,3.60
2022-10-03T19:35:59.735Z,4.83
2022-10-03T19:37:44.529Z,4.10
2022-10-03T19:39:14.621Z,3.57
2022-10-03T19:41:20.125Z,3.70
2022-10-03T19:42:44.305Z,2.60
2022-10-03T19:44:09.052Z,2.67
2022-10-03T19:45:31.475Z,2.90
2022-10-03T19:47:06.255Z,2.87
2022-10-03T19:48:29.793Z,2.90
2022-10-03T19:50:15.939Z,2.37
2022-10-03T19:51:38.110Z,4.17
2022-10-03T19:53:00.521Z,2.57
2022-10-03T19:54:43.030Z,3.23
2022-10-03T19:56:05.218Z,3.63
2022-10-03T19:57:35.832Z,3.30
2022-10-03T19:59:18.102Z,3.10
2022-10-03T20:00:48.583Z,2.80
2022-10-03T20:02:11.576Z,3.77
2022-10-03T20:03:44.023Z,3.43
2022-10-03T20:05:07.134Z,3.27
2022-10-03T20:06:35.110Z,2.83
2022-10-03T20:08:14.673Z,2.87
2022-10-03T20:09:38.898Z,2.70
2022-10-03T20:11:14.202Z,2.20
2022-10-03T20:12:43.571Z,2.03
2022-10-03T20:14:06.901Z,3.43
2022-10-03T20:15:33.400Z,2.13
2022-10-03T20:17:01.873Z,2.40
2022-10-03T20:18:29.268Z,2.43
2022-10-03T20:20:16.995Z,2.40
2022-10-03T20:21:39.813Z,2.90
2022-10-03T20:23:05.730Z,2.50
2022-10-03T20:24:33.310Z,3.13
2022-10-03T20:25:58.429Z,2.53
2022-10-03T20:27:42.340Z,2.60
2022-10-03T20:29:23.715Z,2.10
2022-10-03T20:30:50.583Z,2.40
2022-10-03T20:32:16.893Z,2.50
2022-10-03T20:33:39.154Z,2.87
2022-10-03T20:35:01.466Z,2.37
2022-10-03T20:36:25.763Z,2.73
2022-10-03T20:37:50.282Z,2.80
2022-10-03T20:39:23.081Z,3.70
2022-10-03T20:40:59.964Z,2.93
2022-10-03T20:42:26.440Z,2.83
2022-10-03T20:44:28.236Z,2.40
2022-10-03T20:46:16.117Z,3.33
2022-10-03T20:47:48.771Z,4.23
2022-10-03T20:49:40.555Z,2.97
2022-10-03T20:51:02.931Z,2.90
2022-10-03T20:52:26.237Z,4.13
2022-10-03T20:53:53.057Z,2.90
2022-10-03T20:55:21.729Z,2.80
2022-10-03T20:57:01.402Z,2.70
2022-10-03T20:58:55.233Z,2.60
2022-10-03T21:00:24.969Z,2.27
2022-10-03T21:01:57.296Z,2.27
2022-10-03T21:03:57.620Z,2.73
2022-10-03T21:05:36.284Z,2.20
2022-10-03T21:07:07.082Z,2.90
2022-10-03T21:08:42.424Z,4.30
2022-10-03T21:10:10.529Z,2.67
2022-10-03T21:11:37.039Z,3.20
2022-10-03T21:13:34.678Z,4.30
2022-10-03T21:15:19.115Z,3.50
2022-10-03T21:16:50.640Z,4.17
2022-10-03T21:18:21.050Z,3.10
2022-10-03T21:19:58.105Z,3.47
2022-10-03T21:21:30.371Z,2.20
2022-10-03T21:22:55.672Z,2.23
2022-10-03T21:24:32.998Z,2.57
2022-10-03T21:25:58.848Z,2.87
2022-10-03T21:27:22.501Z,2.43
2022-10-03T21:28:46.304Z,3.10
2022-10-03T21:30:20.471Z,2.57
2022-10-03T21:32:07.058Z,2.60
2022-10-03T21:33:57.868Z,2.20
2022-10-03T21:35:41.884Z,2.20
2022-10-03T21:37:26.582Z,2.97
2022-10-03T21:38:51.070Z,2.40
2022-10-03T21:40:15.964Z,2.93
2022-10-03T21:41:47.616Z,2.63
2022-10-03T21:43:28.919Z,2.63
2022-10-03T21:45:07.756Z,3.40
2022-10-03T21:46:36.709Z,2.40
2022-10-03T21:48:39.955Z,2.53
2022-10-03T21:50:06.084Z,2.50
2022-10-03T21:51:40.482Z,2.60
2022-10-03T21:53:29.059Z,2.30
2022-10-03T21:54:51.040Z,2.60
2022-10-03T21:56:22.196Z,1.97
2022-10-03T21:57:56.492Z,3.50
2022-10-03T21:59:43.890Z,2.67
2022-10-03T22:01:12.825Z,2.40
2022-10-03T22:02:53.254Z,3.70
2022-10-03T22:04:28.987Z,2.43
2022-10-03T22:06:07.304Z,2.60
2022-10-03T22:07:37.621Z,2.50
2022-10-03T22:09:11.532Z,2.87
2022-10-03T22:10:36.722Z,2.20
2022-10-03T22:12:02.936Z,3.07
2022-10-03T22:13:28.846Z,2.47
2022-10-03T22:14:54.462Z,3.40